Flight Track Log - Related Links

Times and Time Zones

All times are in EST time to prevent confusion due to time zone crossing. See the XOJ552 flight status page for this flight to view local times or setup timezone preferences in your user account.

Time Position Orientation Groundspeed Altitude Reporting Facility
EST Latitude Longitude Course Direction KTS MPH feet Rate Location/Type
Mon 08:46:05 AM 40.7500 -73.4333 37° Northeast 167 192 1,500  Level New York TRACON
Mon 08:46:59 AM 40.7833 -73.4000 37° Northeast 208 239 2,800 1,632 Climbing New York TRACON
Mon 08:47:59 AM 40.7333 -73.4000 180° South 230 265 4,600 2,571 Climbing New York TRACON
Mon 08:49:05 AM 40.7833 -73.4667 315° West 265 305 8,200 3,238 Climbing New York TRACON
Mon 08:50:05 AM 40.8667 -73.5000 343° North 290 334 11,400 2,677 Climbing New York TRACON
Mon 08:52:20 AM 40.9733 -73.7008 305° West 326 375 16,900 1,723 Climbing New York Center
Mon 08:53:20 AM 41.0008 -73.8422 284° West 350 403 17,000 50 Climbing New York Center
Mon 08:54:20 AM 41.0208 -73.9531 283° West 360 414 17,000  Level New York Center
Mon 08:55:20 AM 41.0419 -74.0944 281° West 360 414 17,000 650 Level New York Center
Mon 08:56:20 AM 41.0614 -74.2192 282° West 354 407 18,300 1,950 Climbing New York Center
Mon 08:57:20 AM 41.0806 -74.3414 282° West 349 402 20,900 2,600 Climbing New York Center
Mon 08:58:20 AM 41.1017 -74.4689 282° West 349 402 23,500 2,430 Climbing New York Center
Mon 08:59:21 AM 41.1225 -74.5994 282° West 355 409 25,800 2,250 Climbing New York Center
Mon 09:00:20 AM 41.1517 -74.7197 288° West 355 409 28,000 2,067 Climbing New York Center
Mon 09:01:20 AM 41.2017 -74.8439 298° West 369 425 29,900 1,750 Climbing New York Center
Mon 09:02:20 AM 41.2481 -74.9517 300° West 369 425 31,500 1,636 Climbing New York Center
Mon 09:03:21 AM 41.2997 -75.0736 299° West 376 433 33,200 1,700 Climbing New York Center
Mon 09:04:20 AM 41.3517 -75.1931 300° West 381 438 34,900 1,714 Climbing New York Center
Mon 09:05:20 AM 41.4033 -75.3125 300° West 381 438 36,600 1,700 Climbing New York Center
Mon 09:06:20 AM 41.4511 -75.4264 299° West 371 427 38,300 1,600 Climbing New York Center
Mon 09:07:20 AM 41.4903 -75.5400 295° West 359 413 39,800 1,200 Climbing New York Center
Mon 09:08:20 AM 41.5269 -75.6617 292° West 338 389 40,700 650 Climbing New York Center
Mon 09:09:20 AM 41.5478 -75.7603 286° West 327 376 41,100 350 Climbing New York Center
Mon 09:10:20 AM 41.5594 -75.8775 278° West 321 369 41,400 400 Climbing New York Center
Mon 09:11:20 AM 41.5728 -76.0006 278° West 321 369 41,900 450 Climbing New York Center
Mon 09:12:20 AM 41.5864 -76.1181 279° West 326 375 42,300 300 Climbing New York Center
Mon 09:13:20 AM 41.5994 -76.2411 278° West 331 381 42,500 250 Climbing New York Center
Mon 09:14:20 AM 41.6125 -76.3644 278° West 336 387 42,800 150 Climbing New York Center
Mon 09:15:20 AM 41.6250 -76.4931 277° West 336 387 42,800  Level New York Center
Mon 09:16:20 AM 41.6397 -76.6192 279° West 342 394 42,800  Level New York Center
Mon 09:17:20 AM 41.6514 -76.7619 276° West 348 400 42,800  Level New York Center
Mon 09:19:24 AM 41.6781 -77.0194 278° West 359 413 42,800  Level Cleveland Center
Mon 09:20:26 AM 41.6914 -77.1522 278° West 360 414 42,800  Level Cleveland Center
Mon 09:21:27 AM 41.7042 -77.2831 277° West 356 410 42,800  Level Cleveland Center
Mon 09:22:29 AM 41.7194 -77.4431 277° West 360 414 42,800  Level Cleveland Center
Mon 09:23:30 AM 41.7303 -77.5647 277° West 358 412 42,800  Level Cleveland Center
Mon 09:24:32 AM 41.7419 -77.6950 277° West 356 410 42,800  Level Cleveland Center
Mon 09:25:33 AM 41.7550 -77.8278 278° West 360 414 42,800  Level Cleveland Center
Mon 09:26:35 AM 41.7686 -77.9831 277° West 356 410 42,800  Level Cleveland Center
Mon 09:27:36 AM 41.7797 -78.1144 277° West 357 411 42,800  Level Cleveland Center
Mon 09:28:38 AM 41.7922 -78.2444 277° West 356 410 42,800  Level Cleveland Center
Mon 09:29:40 AM 41.8019 -78.3722 276° West 350 403 42,800  Level Cleveland Center
Mon 09:30:41 AM 41.8133 -78.5006 277° West 350 403 42,800  Level Cleveland Center
Mon 09:31:43 AM 41.8239 -78.6278 276° West 347 399 42,800  Level Cleveland Center
Mon 09:32:44 AM 41.8369 -78.7792 277° West 344 396 42,800  Level Cleveland Center
Mon 09:33:46 AM 41.8469 -78.9069 276° West 347 399 42,800  Level Cleveland Center
Mon 09:34:48 AM 41.8586 -79.0319 277° West 346 398 42,800  Level Cleveland Center
Mon 09:35:49 AM 41.8689 -79.1603 276° West 347 399 42,800  Level Cleveland Center
Mon 09:36:51 AM 41.8778 -79.2906 275° West 348 400 42,800  Level Cleveland Center
Mon 09:37:53 AM 41.8875 -79.4181 276° West 347 399 42,800  Level Cleveland Center
Mon 09:38:54 AM 41.8972 -79.5475 276° West 350 403 42,800  Level Cleveland Center
Mon 09:39:56 AM 41.9067 -79.6903 275° West 354 407 42,800  Level Cleveland Center
Mon 09:40:58 AM 41.9175 -79.8244 276° West 357 411 42,800  Level Cleveland Center
Mon 09:41:59 AM 41.9283 -79.9681 276° West 354 407 42,800  Level Cleveland Center
Mon 09:43:01 AM 41.9389 -80.1136 276° West 360 414 42,800  Level Cleveland Center
Mon 09:44:03 AM 41.9478 -80.2481 275° West 358 412 42,800  Level Cleveland Center
Mon 09:45:05 AM 41.9569 -80.3831 275° West 363 418 42,800  Level Cleveland Center
Mon 09:46:06 AM 41.9669 -80.5194 276° West 363 418 42,800  Level Cleveland Center
Mon 09:47:08 AM 41.9758 -80.6556 275° West 363 418 42,800  Level Cleveland Center
Mon 09:48:10 AM 41.9844 -80.7919 275° West 364 419 42,800  Level Cleveland Center
Mon 09:49:11 AM 41.9931 -80.9272 275° West 363 418 42,800  Level Cleveland Center
Mon 09:50:13 AM 42.0011 -81.0631 275° West 363 418 42,800  Level Cleveland Center
Mon 09:51:14 AM 42.0117 -81.2233 275° West 366 421 42,800  Level Cleveland Center
Mon 09:52:16 AM 42.0203 -81.3608 275° West 368 423 42,800  Level Cleveland Center
Mon 09:53:18 AM 42.0278 -81.4994 274° West 369 425 42,800  Level Cleveland Center
Mon 09:54:19 AM 42.0361 -81.6372 275° West 369 425 42,800  Level Cleveland Center
Mon 09:55:21 AM 42.0433 -81.7758 274° West 369 425 42,800  Level Cleveland Center
Mon 09:56:22 AM 42.0511 -81.9153 274° West 370 426 42,800  Level Cleveland Center
Mon 09:57:24 AM 42.0583 -82.0553 274° West 372 428 42,800  Level Cleveland Center
Mon 09:58:25 AM 42.0678 -82.2003 275° West 372 428 42,800  Level Cleveland Center
Mon 09:59:27 AM 42.0736 -82.3381 273° West 372 428 42,800  Level Cleveland Center
Mon 10:00:28 AM 42.0797 -82.4764 273° West 372 428 42,800  Level Cleveland Center
Mon 10:01:30 AM 42.0872 -82.6347 274° West 371 427 42,800  Level Cleveland Center
Mon 10:02:32 AM 42.0944 -82.7539 275° West 374 430 42,800  Level Cleveland Center
Mon 10:03:33 AM 42.1017 -82.9219 273° West 375 432 42,800  Level Cleveland Center
Mon 10:04:35 AM 42.1078 -83.0617 273° West 375 432 42,800  Level Cleveland Center
Mon 10:05:36 AM 42.1142 -83.2019 274° West 375 432 42,800  Level Cleveland Center
Mon 10:06:38 AM 42.1206 -83.3406 274° West 376 433 42,800  Level Cleveland Center
Mon 10:07:39 AM 42.1261 -83.4808 273° West 373 429 42,800  Level Cleveland Center
Mon 10:08:41 AM 42.1325 -83.6275 273° West 375 432 42,800  Level Cleveland Center
Mon 10:09:43 AM 42.1386 -83.7692 273° West 376 433 42,800  Level Cleveland Center
Mon 10:10:44 AM 42.1433 -83.9094 273° West 375 432 42,800  Level Cleveland Center
Mon 10:11:46 AM 42.1478 -84.0508 272° West 377 434 42,800  Level Cleveland Center
Mon 10:12:47 AM 42.1528 -84.1903 273° West 375 432 42,800  Level Cleveland Center
Mon 10:13:49 AM 42.1586 -84.3589 273° West 375 432 42,800  Level Cleveland Center
Mon 10:14:50 AM 42.1614 -84.4761 272° West 375 432 42,800  Level Chicago Center
Mon 10:15:52 AM 42.1667 -84.6433 272° West 373 429 42,800  Level Chicago Center
Mon 10:16:54 AM 42.1708 -84.7847 272° West 376 433 42,800  Level Chicago Center
Mon 10:17:56 AM 42.1767 -84.9247 273° West 377 434 42,800  Level Chicago Center
Mon 10:18:57 AM 42.1800 -85.0639 272° West 375 432 42,800  Level Chicago Center
Mon 10:19:59 AM 42.1836 -85.2058 272° West 377 434 42,800  Level Chicago Center
Mon 10:21:01 AM 42.1869 -85.3442 272° West 372 428 42,800  Level Chicago Center
Mon 10:22:03 AM 42.1900 -85.4842 272° West 374 430 42,800  Level Chicago Center
Mon 10:23:05 AM 42.1947 -85.6531 272° West 375 432 42,800  Level Chicago Center
Mon 10:24:07 AM 42.1975 -85.7939 272° West 375 432 42,800  Level Chicago Center
Mon 10:25:09 AM 42.1992 -85.9322 271° West 370 426 42,800  Level Chicago Center
Mon 10:26:12 AM 42.2022 -86.0839 272° West 374 430 42,800  Level Chicago Center
Mon 10:27:13 AM 42.2050 -86.2231 272° West 375 432 42,800  Level Chicago Center
Mon 10:28:15 AM 42.2072 -86.3611 271° West 371 427 42,800  Level Chicago Center
Mon 10:29:17 AM 42.2089 -86.5011 271° West 374 430 42,800  Level Chicago Center
Mon 10:30:19 AM 42.2108 -86.6392 271° West 372 428 42,800  Level Chicago Center
Mon 10:31:21 AM 42.2131 -86.8064 271° West 373 429 42,800  Level Chicago Center
Mon 10:32:23 AM 42.2142 -86.9467 271° West 376 433 42,800  Level Chicago Center
Mon 10:33:25 AM 42.2156 -87.0767 271° West 374 430 42,800  Level Chicago Center
Mon 10:34:27 AM 42.2164 -87.2175 271° West 375 432 42,800 97 Level Chicago Center
Mon 10:35:29 AM 42.2181 -87.3856 271° West 373 429 43,000 97 Climbing Chicago Center
Mon 10:36:31 AM 42.2186 -87.5247 270° West 373 429 43,000  Level Chicago Center
Mon 10:37:33 AM 42.2197 -87.6647 271° West 373 429 43,000  Level Chicago Center
Mon 10:38:35 AM 42.2211 -87.8053 271° West 374 430 43,000  Level Chicago Center
Mon 10:39:37 AM 42.2208 -87.9467 270° West 376 433 43,000  Level Chicago Center
Mon 10:40:39 AM 42.1983 -88.0825 257° West 373 429 43,000  Level Chicago Center
Mon 10:41:41 AM 42.1694 -88.2456 257° West 373 429 43,000  Level Chicago Center
Mon 10:42:43 AM 42.1461 -88.3811 257° West 371 427 43,000  Level Chicago Center
Mon 10:43:45 AM 42.1225 -88.5172 257° West 373 429 43,000  Level Chicago Center
Mon 10:44:47 AM 42.0981 -88.6525 256° West 371 427 43,000  Level Chicago Center
Mon 10:45:49 AM 42.0736 -88.7881 256° West 372 428 43,000  Level Chicago Center
Mon 10:46:50 AM 42.0492 -88.9225 256° West 372 428 43,000  Level Chicago Center
Mon 10:47:52 AM 42.0239 -89.0558 256° West 369 425 43,000  Level Chicago Center
Mon 10:48:54 AM 41.9994 -89.1956 257° West 373 429 43,000  Level Chicago Center
Mon 10:49:56 AM 41.9733 -89.3283 255° West 370 426 43,000  Level Chicago Center
Mon 10:50:58 AM 41.9439 -89.4894 256° West 369 425 43,000  Level Chicago Center
Mon 10:51:59 AM 41.9186 -89.6186 255° West 368 423 43,000  Level Chicago Center
Mon 10:53:01 AM 41.8936 -89.7536 256° West 371 427 43,000  Level Chicago Center
Mon 10:54:03 AM 41.8675 -89.8883 255° West 373 429 43,000  Level Chicago Center
Mon 10:55:05 AM 41.8442 -90.0428 259° West 372 428 43,000  Level Chicago Center
Mon 10:56:06 AM 41.8258 -90.1803 260° West 375 432 43,000  Level Chicago Center
Mon 10:57:08 AM 41.8067 -90.3181 259° West 377 434 43,000  Level Chicago Center
Mon 10:58:09 AM 41.7867 -90.4661 260° West 377 434 43,000  Level Chicago Center
Mon 10:59:11 AM 41.7675 -90.6022 259° West 375 432 43,000  Level Chicago Center
Mon 11:00:13 AM 41.7506 -90.7281 260° West 374 430 43,000  Level Chicago Center
Mon 11:01:14 AM 41.7306 -90.8656 259° West 376 433 43,000  Level Chicago Center
Mon 11:02:16 AM 41.7072 -91.0281 259° West 372 428 43,000  Level Chicago Center
Mon 11:03:18 AM 41.6892 -91.1622 260° West 369 425 43,000  Level Chicago Center
Mon 11:04:19 AM 41.6689 -91.2983 259° West 373 429 43,000  Level Chicago Center
Mon 11:05:21 AM 41.6497 -91.4317 259° West 368 423 43,000  Level Chicago Center
Mon 11:06:22 AM 41.6292 -91.5669 259° West 371 427 43,000  Level Chicago Center
Mon 11:07:24 AM 41.6089 -91.7033 259° West 374 430 43,000  Level Chicago Center
Mon 11:08:26 AM 41.5894 -91.8397 259° West 376 433 43,000  Level Chicago Center
Mon 11:09:27 AM 41.5681 -91.9742 258° West 373 429 43,000  Level Chicago Center
Mon 11:10:29 AM 41.5439 -92.1375 259° West 374 430 43,000  Level Chicago Center
Mon 11:11:30 AM 41.5228 -92.2719 258° West 371 427 43,000  Level Chicago Center
Mon 11:12:32 AM 41.5019 -92.4092 259° West 377 434 43,000  Level Chicago Center
Mon 11:13:33 AM 41.4778 -92.5544 258° West 373 429 43,000  Level Chicago Center
Mon 11:14:35 AM 41.4564 -92.6914 258° West 375 432 43,000  Level Chicago Center
Mon 11:15:36 AM 41.4342 -92.8283 258° West 380 437 43,000  Level Chicago Center
Mon 11:16:38 AM 41.4131 -92.9686 259° West 386 444 43,000  Level Chicago Center
Mon 11:17:39 AM 41.3903 -93.1061 258° West 382 440 43,000  Level Chicago Center
Mon 11:18:41 AM 41.3675 -93.2439 258° West 384 442 43,000  Level Chicago Center
Mon 11:19:43 AM 41.3456 -93.3814 258° West 381 438 43,000  Level Chicago Center
Mon 11:20:44 AM 41.3183 -93.5467 258° West 384 442 43,000  Level Chicago Center
Mon 11:21:46 AM 41.2953 -93.6847 258° West 384 442 43,000  Level Chicago Center
Mon 11:22:47 AM 41.2725 -93.8219 258° West 382 440 43,000  Level Chicago Center
Mon 11:23:48 AM 41.2483 -93.9597 257° West 384 442 43,000  Level Chicago Center
Mon 11:24:50 AM 41.2250 -94.0981 257° West 385 443 43,000  Level Chicago Center
Mon 11:25:51 AM 41.2011 -94.2347 257° West 384 442 43,000  Level Chicago Center
Mon 11:26:53 AM 41.1775 -94.3717 257° West 383 441 43,000  Level Chicago Center
Mon 11:27:54 AM 41.1489 -94.5378 257° West 386 444 43,000  Level Chicago Center
Mon 11:29:24 AM 41.1156 -94.7308 257° West 386 444 43,000  Level Minneapolis Center
Mon 11:30:26 AM 41.0917 -94.8708 257° West 389 448 43,000  Level Minneapolis Center
Mon 11:31:28 AM 41.0656 -95.0089 256° West 388 447 43,000  Level Minneapolis Center
Mon 11:32:30 AM 41.0356 -95.1756 257° West 387 445 43,000  Level Minneapolis Center
Mon 11:33:31 AM 41.0094 -95.3150 256° West 388 447 43,000  Level Minneapolis Center
Mon 11:34:33 AM 40.9825 -95.4564 256° West 393 452 43,000  Level Minneapolis Center
Mon 11:35:35 AM 40.9575 -95.5958 257° West 390 449 43,000  Level Minneapolis Center
Mon 11:36:37 AM 40.9317 -95.7342 256° West 387 445 43,000  Level Minneapolis Center
Mon 11:37:39 AM 40.9047 -95.8775 256° West 394 453 43,000  Level Minneapolis Center
Mon 11:38:40 AM 40.8781 -96.0169 256° West 392 451 43,000  Level Minneapolis Center
Mon 11:39:42 AM 40.8511 -96.1569 256° West 391 450 43,000  Level Minneapolis Center
Mon 11:40:44 AM 40.8247 -96.2972 256° West 392 451 43,000  Level Minneapolis Center
Mon 11:41:46 AM 40.7922 -96.4633 256° West 389 448 43,000  Level Minneapolis Center
Mon 11:42:48 AM 40.7656 -96.6033 256° West 391 450 43,000  Level Minneapolis Center
Mon 11:43:50 AM 40.7381 -96.7442 256° West 394 453 43,000  Level Minneapolis Center
Mon 11:44:51 AM 40.7100 -96.8839 255° West 394 453 43,000  Level Minneapolis Center
Mon 11:45:53 AM 40.6822 -97.0247 255° West 396 456 43,000  Level Minneapolis Center
Mon 11:46:55 AM 40.6547 -97.1636 255° West 394 453 43,000  Level Minneapolis Center
Mon 11:47:57 AM 40.6258 -97.3025 255° West 393 452 43,000  Level Minneapolis Center
Mon 11:48:58 AM 40.5969 -97.4503 256° West 393 452 43,000  Level Minneapolis Center
Mon 11:50:00 AM 40.5678 -97.5881 254° West 391 450 43,000  Level Minneapolis Center
Mon 11:51:02 AM 40.5392 -97.7267 255° West 391 450 43,000  Level Minneapolis Center
Mon 11:52:04 AM 40.5106 -97.8664 255° West 393 452 43,000  Level Minneapolis Center
Mon 11:53:06 AM 40.4750 -98.0342 254° West 396 456 43,000  Level Minneapolis Center
Mon 11:54:07 AM 40.4456 -98.1739 255° West 396 456 43,000  Level Minneapolis Center
Mon 11:55:09 AM 40.4164 -98.3142 255° West 397 457 43,000  Level Minneapolis Center
Mon 11:56:11 AM 40.3858 -98.4547 254° West 398 458 43,000  Level Minneapolis Center
Mon 11:57:13 AM 40.3561 -98.5961 255° West 399 459 43,000  Level Minneapolis Center
Mon 11:58:15 AM 40.3253 -98.7367 254° West 400 460 43,000  Level Minneapolis Center
Mon 11:59:16 AM 40.2944 -98.8781 254° West 400 460 43,000  Level Minneapolis Center
Mon 12:00:19 PM 40.2636 -99.0206 254° West 403 464 43,000  Level Minneapolis Center
Mon 12:01:21 PM 40.2264 -99.1886 254° West 401 461 43,000  Level Minneapolis Center
Mon 12:02:37 PM 40.1886 -99.3581 254° West 402 463 43,000  Level Denver Center
Mon 12:03:39 PM 40.1581 -99.4975 254° West 400 460 43,000  Level Denver Center
Mon 12:04:41 PM 40.1256 -99.6364 253° West 399 459 43,000  Level Denver Center
Mon 12:05:44 PM 40.0939 -99.7775 254° West 402 463 43,000  Level Denver Center
Mon 12:06:46 PM 40.0592 -99.9317 254° West 403 464 43,000  Level Denver Center
Mon 12:07:48 PM 40.0242 -100.0850 253° West 401 461 43,000  Level Denver Center
Mon 12:08:50 PM 39.9919 -100.2247 253° West 401 461 43,000  Level Denver Center
Mon 12:09:52 PM 39.9564 -100.3767 253° West 402 463 43,000  Level Denver Center
Mon 12:10:54 PM 39.9242 -100.5108 253° West 404 465 43,000  Level Denver Center
Mon 12:11:56 PM 39.8925 -100.6461 253° West 406 467 43,000  Level Denver Center
Mon 12:12:58 PM 39.8558 -100.8028 253° West 406 467 43,000  Level Denver Center
Mon 12:14:00 PM 39.8239 -100.9369 253° West 406 467 43,000  Level Denver Center
Mon 12:15:15 PM 39.7803 -101.1156 252° West 404 465 43,000  Level Denver Center
Mon 12:16:29 PM 39.7372 -101.2964 253° West 408 470 43,000  Level Denver Center
Mon 12:17:31 PM 39.7033 -101.4314 252° West 410 472 43,000  Level Denver Center
Mon 12:18:33 PM 39.6656 -101.5875 253° West 407 468 43,000  Level Denver Center
Mon 12:19:35 PM 39.6333 -101.7217 253° West 407 468 43,000  Level Denver Center
Mon 12:20:37 PM 39.5950 -101.8764 252° West 403 464 43,000  Level Denver Center
Mon 12:21:40 PM 39.5619 -102.0075 252° West 402 463 43,000  Level Denver Center
Mon 12:22:42 PM 39.5256 -102.1617 253° West 401 461 43,000  Level Denver Center
Mon 12:23:44 PM 39.4908 -102.2917 251° West 398 458 43,000  Level Denver Center
Mon 12:24:46 PM 39.4561 -102.4281 252° West 400 460 43,000  Level Denver Center
Mon 12:25:48 PM 39.4203 -102.5656 251° West 403 464 43,000  Level Denver Center
Mon 12:26:50 PM 39.3861 -102.7028 252° West 402 463 43,000  Level Denver Center
Mon 12:27:52 PM 39.3417 -102.8675 251° West 405 466 43,000  Level Denver Center
Mon 12:28:54 PM 39.3075 -103.0058 252° West 406 467 43,000  Level Denver Center
Mon 12:29:56 PM 39.2711 -103.1447 251° West 409 471 43,000  Level Denver Center
Mon 12:30:58 PM 39.2344 -103.2822 251° West 405 466 43,000  Level Denver Center
Mon 12:32:00 PM 39.1981 -103.4197 251° West 406 467 43,000  Level Denver Center
Mon 12:33:02 PM 39.1611 -103.5567 251° West 404 465 43,000  Level Denver Center
Mon 12:34:04 PM 39.1169 -103.7233 251° West 409 471 43,000  Level Denver Center
Mon 12:35:06 PM 39.0800 -103.8625 251° West 410 472 43,000  Level Denver Center
Mon 12:36:09 PM 39.0417 -104.0008 250° West 410 472 43,000  Level Denver Center
Mon 12:37:11 PM 39.0050 -104.1394 251° West 409 471 43,000  Level Denver Center
Mon 12:38:13 PM 38.9669 -104.2778 251° West 410 472 43,000  Level Denver Center
Mon 12:39:15 PM 38.9294 -104.4147 251° West 407 468 43,000  Level Denver Center
Mon 12:40:17 PM 38.8836 -104.5814 251° West 411 473 43,000  Level Denver Center
Mon 12:41:19 PM 38.8461 -104.7172 251° West 406 467 43,000  Level Denver Center
Mon 12:42:21 PM 38.8078 -104.8525 250° West 403 464 43,000  Level Denver Center
Mon 12:43:23 PM 38.7692 -104.9903 250° West 408 470 43,000  Level Denver Center
Mon 12:44:25 PM 38.7300 -105.1269 250° West 409 471 43,000  Level Denver Center
Mon 12:45:27 PM 38.6925 -105.2642 251° West 408 470 43,000  Level Denver Center
Mon 12:46:29 PM 38.6525 -105.4011 250° West 411 473 43,000  Level Denver Center
Mon 12:47:31 PM 38.6056 -105.5653 250° West 409 471 43,000  Level Denver Center
Mon 12:48:33 PM 38.5653 -105.7028 249° West 411 473 43,000  Level Denver Center
Mon 12:49:35 PM 38.5231 -105.8478 250° West 413 475 43,000  Level Denver Center
Mon 12:50:37 PM 38.4847 -105.9786 250° West 412 474 43,000  Level Denver Center
Mon 12:51:39 PM 38.4403 -106.1331 250° West 416 479 43,000  Level Denver Center
Mon 12:52:42 PM 38.4003 -106.2653 249° West 421 484 43,000  Level Denver Center
Mon 12:53:44 PM 38.3592 -106.4050 249° West 420 483 43,000  Level Denver Center
Mon 12:54:46 PM 38.3150 -106.5528 249° West 424 488 43,000  Level Denver Center
Mon 12:55:48 PM 38.2683 -106.7081 249° West 421 484 43,000  Level Denver Center
Mon 12:56:50 PM 38.2278 -106.8442 249° West 426 490 43,000  Level Denver Center
Mon 12:57:52 PM 38.1808 -106.9986 249° West 426 490 43,000  Level Denver Center
Mon 12:58:54 PM 38.1375 -107.1397 249° West 427 491 43,000  Level Denver Center
Mon 12:59:56 PM 38.0911 -107.2933 249° West 427 491 43,000  Level Denver Center
Mon 01:00:58 PM 38.0458 -107.4214 246° West 424 488 43,000  Level Denver Center
Mon 01:02:00 PM 37.9911 -107.5736 246° West 424 488 43,000  Level Denver Center
Mon 01:03:02 PM 37.9450 -107.7050 246° West 426 490 43,000  Level Denver Center
Mon 01:04:04 PM 37.8892 -107.8558 245° Southwest 425 489 43,000  Level Denver Center
Mon 01:05:06 PM 37.8419 -107.9864 245° Southwest 426 490 43,000  Level Denver Center
Mon 01:06:08 PM 37.7936 -108.1181 245° Southwest 428 493 43,000  Level Denver Center
Mon 01:07:10 PM 37.7389 -108.2717 246° West 430 495 43,000  Level Denver Center
Mon 01:08:13 PM 37.6906 -108.4000 245° Southwest 427 491 43,000  Level Denver Center
Mon 01:09:15 PM 37.6339 -108.5544 245° Southwest 430 495 43,000  Level Denver Center
Mon 01:10:17 PM 37.5858 -108.6842 245° Southwest 427 491 43,000  Level Denver Center
Mon 01:11:19 PM 37.5294 -108.8361 245° Southwest 431 496 43,000  Level Denver Center
Mon 01:12:21 PM 37.4808 -108.9603 244° Southwest 420 483 43,000  Level Denver Center
Mon 01:13:23 PM 37.4242 -109.1119 245° Southwest 427 491 43,000  Level Denver Center
Mon 01:14:25 PM 37.3750 -109.2422 245° Southwest 431 496 43,000  Level Denver Center
Mon 01:15:27 PM 37.3178 -109.3928 244° Southwest 429 494 43,000  Level Denver Center
Mon 01:16:29 PM 37.2681 -109.5217 244° Southwest 429 494 43,000  Level Denver Center
Mon 01:17:31 PM 37.2100 -109.6739 244° Southwest 434 499 43,000  Level Denver Center
Mon 01:18:33 PM 37.1594 -109.8028 244° Southwest 433 498 43,000  Level Denver Center
Mon 01:19:35 PM 37.1008 -109.9533 244° Southwest 431 496 43,000  Level Denver Center
Mon 01:20:37 PM 37.0511 -110.0831 244° Southwest 432 497 43,000  Level Denver Center
Mon 01:21:39 PM 36.9908 -110.2358 244° Southwest 432 497 43,000  Level Denver Center
Mon 01:22:42 PM 36.9386 -110.3700 244° Southwest 431 496 43,000  Level Denver Center
Mon 01:23:44 PM 36.8842 -110.5044 243° Southwest 432 497 43,000  Level Denver Center
Mon 01:24:46 PM 36.8317 -110.6383 244° Southwest 430 495 43,000  Level Denver Center
Mon 01:25:48 PM 36.7792 -110.7725 244° Southwest 431 496 43,000  Level Denver Center
Mon 01:26:50 PM 36.7244 -110.9064 243° Southwest 432 497 43,000  Level Denver Center
Mon 01:27:52 PM 36.6617 -111.0658 244° Southwest 430 495 43,000  Level Denver Center
Mon 01:28:54 PM 36.6086 -111.1981 243° Southwest 428 493 43,000  Level Denver Center
Mon 01:29:56 PM 36.5547 -111.3306 243° Southwest 428 493 43,000  Level Denver Center
Mon 01:30:58 PM 36.5003 -111.4639 243° Southwest 431 496 43,000  Level Denver Center
Mon 01:32:00 PM 36.4453 -111.5967 243° Southwest 431 496 43,000  Level Denver Center
Mon 01:32:38 PM 36.4133 -111.6772 244° Southwest 427 491 43,000  Level Los Angeles Center
Mon 01:33:41 PM 36.3464 -111.8381 243° Southwest 434 499 43,000  Level Los Angeles Center
Mon 01:34:43 PM 36.2914 -111.9728 243° Southwest 436 502 43,000  Level Los Angeles Center
Mon 01:35:45 PM 36.2353 -112.1072 243° Southwest 439 505 43,000  Level Los Angeles Center
Mon 01:36:47 PM 36.1797 -112.2414 243° Southwest 440 506 43,000  Level Los Angeles Center
Mon 01:37:49 PM 36.1236 -112.3750 243° Southwest 437 503 43,000  Level Los Angeles Center
Mon 01:38:51 PM 36.0672 -112.5086 242° Southwest 437 503 43,000  Level Los Angeles Center
Mon 01:39:53 PM 35.9994 -112.6697 243° Southwest 439 505 43,000  Level Los Angeles Center
Mon 01:40:55 PM 35.9450 -112.7969 242° Southwest 439 505 43,000  Level Los Angeles Center
Mon 01:41:58 PM 35.8878 -112.9331 243° Southwest 445 512 43,000  Level Los Angeles Center
Mon 01:43:00 PM 35.8314 -113.0650 242° Southwest 442 509 43,000  Level Los Angeles Center
Mon 01:44:02 PM 35.7733 -113.1972 242° Southwest 445 512 43,000  Level Los Angeles Center
Mon 01:45:04 PM 35.7061 -113.3567 243° Southwest 442 509 43,000  Level Los Angeles Center
Mon 01:46:06 PM 35.6483 -113.4889 242° Southwest 444 511 43,000  Level Los Angeles Center
Mon 01:47:08 PM 35.5931 -113.6217 243° Southwest 442 509 43,000  Level Los Angeles Center
Mon 01:48:10 PM 35.5378 -113.7569 243° Southwest 445 512 43,000  Level Los Angeles Center
Mon 01:49:12 PM 35.4725 -113.9175 244° Southwest 443 510 43,000  Level Los Angeles Center
Mon 01:50:15 PM 35.4236 -114.0394 244° Southwest 442 509 43,000  Level Los Angeles Center
Mon 01:51:29 PM 35.3561 -114.2014 243° Southwest 443 510 43,000  Level Los Angeles Center
Mon 01:52:31 PM 35.2914 -114.3622 244° Southwest 439 505 43,000  Level Los Angeles Center
Mon 01:53:33 PM 35.2344 -114.4989 243° Southwest 447 514 43,000 -145 Level Los Angeles Center
Mon 01:54:35 PM 35.1783 -114.6339 243° Southwest 447 514 42,700 -624 Descending Los Angeles Center
Mon 01:55:38 PM 35.1219 -114.7686 243° Southwest 446 513 41,700 -1,008 Descending Los Angeles Center
Mon 01:56:40 PM 35.0664 -114.9003 243° Southwest 437 503 40,600 -1,016 Descending Los Angeles Center
Mon 01:57:42 PM 35.0108 -115.0325 243° Southwest 438 504 39,600 -1,258 Descending Los Angeles Center
Mon 01:58:44 PM 34.9925 -115.2008 262° West 431 496 38,000 -774 Descending Los Angeles Center
Mon 01:59:46 PM 35.0128 -115.3228 282° West 423 487 38,000  Level Los Angeles Center
Mon 02:00:48 PM 35.0342 -115.4639 281° West 424 488 38,000  Level Los Angeles Center
Mon 02:01:50 PM 35.0600 -115.6336 281° West 425 489 38,000  Level Los Angeles Center
Mon 02:02:52 PM 35.0389 -115.7744 260° West 428 493 38,000  Level Los Angeles Center
Mon 02:03:55 PM 34.9658 -115.8972 234° Southwest 444 511 38,000  Level Los Angeles Center
Mon 02:04:57 PM 34.8842 -116.0139 230° Southwest 450 518 38,000 -339 Level Los Angeles Center
Mon 02:05:59 PM 34.8022 -116.1322 230° Southwest 454 522 37,300 -968 Descending Los Angeles Center
Mon 02:07:01 PM 34.7206 -116.2483 229° Southwest 453 521 36,000 -1,500 Descending Los Angeles Center
Mon 02:08:03 PM 34.6281 -116.3808 230° Southwest 431 496 34,200 -1,584 Descending Los Angeles Center
Mon 02:09:06 PM 34.5500 -116.4864 228° Southwest 421 484 32,700 -1,742 Descending Los Angeles Center
Mon 02:10:07 PM 34.4475 -116.5567 209° Southwest 432 497 30,600 -1,854 Descending Los Angeles Center
Mon 02:11:09 PM 34.3286 -116.5772 188° South 427 491 28,900 -1,488 Descending Los Angeles Center
Mon 02:12:12 PM 34.2494 -116.6503 217° Southwest 366 421 27,500 -1,488 Descending Los Angeles Center
Mon 02:13:14 PM 34.2178 -116.7567 250° West 338 389 25,800 -2,226 Descending Los Angeles Center
Mon 02:14:16 PM 34.1781 -116.8836 249° West 337 388 22,900 -2,565 Descending Los Angeles Center
Mon 02:15:18 PM 34.1439 -116.9917 249° West 344 396 20,500 -2,452 Descending Los Angeles Center
Mon 02:15:49 PM 34.1167 -117.0667 246° West 356 410 19,100 -2,308 Descending Southern California TRACON
Mon 02:16:49 PM 34.0833 -117.1667 248° West 378 435 17,000 -1,665 Descending Southern California TRACON
Mon 02:18:24 PM 34.0400 -117.3322 253° West 366 421 14,800 -1,490 Descending Los Angeles Center
Mon 02:19:26 PM 34.0281 -117.4608 264° West 326 375 13,100 -1,452 Descending Los Angeles Center
Mon 02:20:28 PM 34.0192 -117.5533 263° West 287 330 11,800 -1,200 Descending Los Angeles Center
Mon 02:21:31 PM 34.0114 -117.6467 264° West 281 323 10,600 -1,152 Descending Los Angeles Center
Mon 02:22:33 PM 34.0028 -117.7383 264° West 277 319 9,400 -1,113 Descending Los Angeles Center
Mon 02:23:35 PM 33.9936 -117.8281 263° West 274 315 8,300 -1,210 Descending Los Angeles Center
Mon 02:24:37 PM 33.9833 -117.9333 263° West 267 307 6,900 -1,258 Descending Los Angeles Center
Mon 02:25:39 PM 33.9742 -118.0208 263° West 265 305 5,700 -1,065 Descending Los Angeles Center
Mon 02:26:41 PM 33.9661 -118.0992 263° West 247 284 4,700 -1,065 Descending Los Angeles Center
Mon 02:27:43 PM 33.9600 -118.1717 264° West 227 261 3,500 -1,065 Descending Los Angeles Center
Mon 02:28:45 PM 33.9525 -118.2372 262° West 212 244 2,500 -952 Descending Los Angeles Center
Mon 02:29:49 PM 33.9461 -118.3022 263° West 181 208 1,500 -864 Descending Los Angeles Center
Mon 02:30:50 PM 33.9414 -118.3494 263° West 160 184 700 -683 Descending Los Angeles Center
Mon 02:31:52 PM 33.9400 -118.3869 267° West 132 152 100 -581 Descending Los Angeles Center
Mon 02:33:00 PM 33.9333 -118.4000 259° West  Level FlightAware Approximate
Mon 02:40:00 PM 33.9425 -118.4081 259° West  Level Estimated

Login

Don't have an account? Register now (free) for customized features, flight alerts, and more!